Time;durP1;ratioP1;P1;durP2;ratioP2;P2;SDS_P1;SDS_P2;PMS_P1;PMS_P2;Temp;Humidity;BMP_temperature;BMP_pressure;BME280_temperature;BME280_humidity;BME280_pressure;Samples;Min_cycle;Max_cycle;Signal;HPM_P1;HPM_P2
2022/04/04 00:00:20;;;;;;;;;;;;;;;-5.89;100.00;96124.97;1036980;28;19975;-72
2022/04/04 00:00:50;;;;;;;;;;;;;;;-5.91;100.00;96119.19;1041452;28;20313;-73
2022/04/04 00:01:20;;;;;;;;;;;;;;;-5.95;100.00;96123.84;1032624;28;19905;-72
2022/04/04 00:01:51;;;;;;;;;;;;;;;-5.90;100.00;96122.53;1029754;28;20295;-70
2022/04/04 00:02:21;;;;;;;;;;;;;;;-5.87;100.00;96123.03;1026492;28;20894;-74
2022/04/04 00:02:51;;;;;;;;;;;;;;;-5.87;100.00;96124.81;1030321;28;20166;-72
2022/04/04 00:03:24;;;;;;;;;;;;;;;-5.84;100.00;96119.41;1034364;28;19973;-74
2022/04/04 00:03:54;;;;;;;;;;;;;;;-5.86;100.00;96126.44;1034669;28;20424;-71
2022/04/04 00:04:25;;;;;;;;;;;;;;;-5.89;100.00;96119.84;1038719;28;19919;-73
2022/04/04 00:04:55;;;;;;;;;;;;;;;-5.84;100.00;96116.84;1037880;28;19920;-73
2022/04/04 00:05:25;;;;;;;;;;;;;;;-5.84;100.00;96116.84;1037822;28;20464;-72
2022/04/04 00:05:56;;;;;;;;;;;;;;;-5.85;100.00;96121.16;1038454;28;19946;-72
2022/04/04 00:06:29;;;;;;;;;;;;;;;-5.80;100.00;96120.69;1034634;28;20733;-72
2022/04/04 00:07:02;;;;;;;;;;;;;;;-5.75;100.00;96115.94;1033207;28;19914;-75
2022/04/04 00:07:32;;;;;;;;;;;;;;;-5.76;100.00;96117.69;1035362;28;20477;-73
2022/04/04 00:08:03;;;;;;;;;;;;;;;-5.73;100.00;96114.03;1031943;28;20246;-73
2022/04/04 00:08:34;;;;;;;;;;;;;;;-5.73;100.00;96114.84;1027734;28;19914;-71
2022/04/04 00:09:04;;;;;;;;;;;;;;;-5.77;100.00;96113.56;1031191;28;19960;-73
2022/04/04 00:09:34;;;;;;;;;;;;;;;-5.78;100.00;96114.47;1031212;28;19914;-73
2022/04/04 00:10:05;;;;;;;;;;;;;;;-5.76;100.00;96109.25;1027224;28;19918;-71
2022/04/04 00:10:35;;;;;;;;;;;;;;;-5.75;100.00;96115.94;1027269;28;19950;-71
2022/04/04 00:11:06;;;;;;;;;;;;;;;-5.77;100.00;96107.63;1027184;28;19906;-72
2022/04/04 00:11:40;;;;;;;;;;;;;;;-5.78;100.00;96111.13;1029092;28;20447;-73
2022/04/04 00:12:10;;;;;;;;;;;;;;;-5.79;100.00;96110.34;1032128;28;19971;-72
2022/04/04 00:12:40;;;;;;;;;;;;;;;-5.80;100.00;96102.81;1039193;28;20320;-71
2022/04/04 00:13:11;;;;;;;;;;;;;;;-5.79;100.00;96109.53;1035727;28;19913;-72
2022/04/04 00:13:41;;;;;;;;;;;;;;;-5.76;100.00;96109.25;1030838;28;19913;-71
2022/04/04 00:14:12;;;;;;;;;;;;;;;-5.81;100.00;96104.56;1031194;28;20295;-71
2022/04/04 00:14:43;;;;;;;;;;;;;;;-5.86;100.00;96109.34;1031334;28;20301;-72
2022/04/04 00:15:13;;;;;;;;;;;;;;;-5.87;100.00;96107.72;1031154;28;19921;-73
2022/04/04 00:15:43;;;;;;;;;;;;;;;-5.86;100.00;96109.34;1031008;28;19965;-72
2022/04/04 00:16:14;;;;;;;;;;;;;;;-5.85;100.00;96100.72;1031021;28;20085;-70
2022/04/04 00:16:44;;;;;;;;;;;;;;;-5.91;100.00;96111.53;1030729;28;19922;-73
2022/04/04 00:17:15;;;;;;;;;;;;;;;-5.95;100.00;96108.50;1030778;28;19920;-72
2022/04/04 00:17:45;;;;;;;;;;;;;;;-5.96;100.00;96109.47;1035243;28;20394;-72
2022/04/04 00:18:15;;;;;;;;;;;;;;;-6.00;100.00;96109.91;1035182;28;19916;-71
2022/04/04 00:18:46;;;;;;;;;;;;;;;-6.04;100.00;96104.28;1035082;28;19993;-72
2022/04/04 00:19:16;;;;;;;;;;;;;;;-6.02;100.00;96104.97;1035300;28;19905;-71
2022/04/04 00:19:46;;;;;;;;;;;;;;;-5.96;100.00;96108.69;1035166;28;19909;-73
2022/04/04 00:20:16;;;;;;;;;;;;;;;-5.95;100.00;96105.97;1035276;28;19952;-71
2022/04/04 00:20:47;;;;;;;;;;;;;;;-5.90;100.00;96107.22;1035267;28;19909;-73
2022/04/04 00:21:18;;;;;;;;;;;;;;;-5.93;100.00;96106.63;1039206;28;20371;-74
2022/04/04 00:21:49;;;;;;;;;;;;;;;-5.93;100.00;96104.06;1034918;28;19921;-71
2022/04/04 00:22:19;;;;;;;;;;;;;;;-5.92;100.00;96110.75;1034824;28;19922;-72
2022/04/04 00:22:49;;;;;;;;;;;;;;;-5.85;100.00;96105.03;1035369;28;19932;-71
2022/04/04 00:23:20;;;;;;;;;;;;;;;-5.86;100.00;96103.44;1035155;28;19913;-74
2022/04/04 00:23:50;;;;;;;;;;;;;;;-5.82;100.00;96104.72;1031958;28;20125;-72
2022/04/04 00:24:20;;;;;;;;;;;;;;;-5.80;100.00;96107.91;1035194;28;19914;-72
2022/04/04 00:24:50;;;;;;;;;;;;;;;-5.83;100.00;96111.59;1035285;28;19910;-71
2022/04/04 00:25:21;;;;;;;;;;;;;;;-5.83;100.00;96103.94;1035310;28;20298;-72
2022/04/04 00:25:51;;;;;;;;;;;;;;;-5.82;100.00;96107.28;1039109;28;19916;-73
2022/04/04 00:26:21;;;;;;;;;;;;;;;-5.75;100.00;96098.84;1039377;28;20378;-72
2022/04/04 00:26:53;;;;;;;;;;;;;;;-5.72;100.00;96106.22;1038777;28;20012;-72
2022/04/04 00:27:23;;;;;;;;;;;;;;;-5.75;100.00;96101.41;1035121;28;20398;-73
2022/04/04 00:27:54;;;;;;;;;;;;;;;-5.79;100.00;96104.44;1026778;28;19910;-74
2022/04/04 00:28:24;;;;;;;;;;;;;;;-5.82;100.00;96102.16;1027134;28;19906;-73
2022/04/04 00:28:54;;;;;;;;;;;;;;;-5.82;100.00;96100.41;1027253;28;20380;-72
2022/04/04 00:29:25;;;;;;;;;;;;;;;-5.74;100.00;96104.75;1027131;28;19906;-71
2022/04/04 00:29:55;;;;;;;;;;;;;;;-5.77;100.00;96107.63;1031073;28;19910;-72
2022/04/04 00:30:26;;;;;;;;;;;;;;;-5.77;100.00;96107.63;1026954;28;19910;-72
2022/04/04 00:30:56;;;;;;;;;;;;;;;-5.79;100.00;96104.44;1027173;28;19917;-71
2022/04/04 00:31:27;;;;;;;;;;;;;;;-5.81;100.00;96103.75;1031644;28;20482;-72
2022/04/04 00:31:59;;;;;;;;;;;;;;;-5.83;100.00;96109.03;1035131;28;20361;-71
2022/04/04 00:32:30;;;;;;;;;;;;;;;-5.82;100.00;96104.72;1039141;28;19960;-74
2022/04/04 00:33:00;;;;;;;;;;;;;;;-5.83;100.00;96105.69;1039237;28;19910;-74
2022/04/04 00:33:31;;;;;;;;;;;;;;;-5.81;100.00;96101.22;1031579;28;19906;-72
2022/04/04 00:34:01;;;;;;;;;;;;;;;-5.82;100.00;96109.84;1034947;28;20514;-73
2022/04/04 00:34:34;;;;;;;;;;;;;;;-5.82;100.00;96104.72;1035236;28;19921;-73
2022/04/04 00:35:05;;;;;;;;;;;;;;;-5.82;100.00;96102.16;1031283;28;19910;-73
2022/04/04 00:35:35;;;;;;;;;;;;;;;-5.79;100.00;96104.44;1031344;28;20423;-73
2022/04/04 00:36:06;;;;;;;;;;;;;;;-5.77;100.00;96099.94;1038929;28;19917;-72
2022/04/04 00:36:38;;;;;;;;;;;;;;;-5.76;100.00;96099.81;1035597;28;20373;-71
2022/04/04 00:37:08;;;;;;;;;;;;;;;-5.74;100.00;96107.31;1034614;28;19940;-73
2022/04/04 00:37:41;;;;;;;;;;;;;;;-5.76;100.00;96104.91;1035060;28;19940;-74
2022/04/04 00:38:12;;;;;;;;;;;;;;;-5.77;100.00;96098.22;1035935;28;19921;-73
2022/04/04 00:38:42;;;;;;;;;;;;;;;-5.78;100.00;96100.91;1039624;28;19931;-71
2022/04/04 00:39:16;;;;;;;;;;;;;;;-5.80;100.00;96097.69;1035021;28;19958;-73
2022/04/04 00:39:46;;;;;;;;;;;;;;;-5.82;100.00;96102.16;1035274;28;20430;-72
2022/04/04 00:40:16;;;;;;;;;;;;;;;-5.87;100.00;96094.16;1035053;28;19921;-73
2022/04/04 00:40:47;;;;;;;;;;;;;;;-5.86;100.00;96098.31;1035485;28;19953;-70
2022/04/04 00:41:17;;;;;;;;;;;;;;;-5.75;100.00;96098.06;1032919;28;19913;-71
2022/04/04 00:41:48;;;;;;;;;;;;;;;-5.77;100.00;96102.50;1031522;28;19944;-72
2022/04/04 00:42:18;;;;;;;;;;;;;;;-5.76;100.00;96093.91;1035602;28;19949;-72
2022/04/04 00:42:48;;;;;;;;;;;;;;;-5.80;100.00;96101.06;1035263;28;19953;-72
2022/04/04 00:43:20;;;;;;;;;;;;;;;-5.82;100.00;96099.63;1031235;28;19917;-73
2022/04/04 00:43:51;;;;;;;;;;;;;;;-5.85;100.00;96094.81;1031849;28;19913;-74
2022/04/04 00:44:21;;;;;;;;;;;;;;;-5.92;100.00;96100.50;1031337;28;19906;-74
2022/04/04 00:44:51;;;;;;;;;;;;;;;-5.96;100.00;96104.38;1031406;28;19917;-74
2022/04/04 00:45:22;;;;;;;;;;;;;;;-5.99;100.00;96099.56;1031268;28;19917;-72
2022/04/04 00:45:52;;;;;;;;;;;;;;;-5.97;100.00;96101.94;1027824;28;19965;-73
2022/04/04 00:46:23;;;;;;;;;;;;;;;-5.98;100.00;96102.91;1031357;28;20311;-71
2022/04/04 00:46:53;;;;;;;;;;;;;;;-6.02;100.00;96099.84;1034787;28;20586;-73
2022/04/04 00:47:23;;;;;;;;;;;;;;;-6.07;100.00;96099.50;1031705;28;19910;-71
2022/04/04 00:47:54;;;;;;;;;;;;;;;-6.12;100.00;96101.69;1038242;28;19933;-71
2022/04/04 00:48:24;;;;;;;;;;;;;;;-6.14;100.00;96093.38;1035307;28;20281;-73
2022/04/04 00:48:57;;;;;;;;;;;;;;;-6.15;100.00;96099.44;1035018;28;19937;-72
2022/04/04 00:49:28;;;;;;;;;;;;;;;-6.12;100.00;96091.50;1037077;28;19964;-72
2022/04/04 00:50:00;;;;;;;;;;;;;;;-6.19;100.00;96093.03;1039052;28;19987;-72
2022/04/04 00:50:30;;;;;;;;;;;;;;;-6.21;100.00;96089.81;1035122;28;19921;-72
2022/04/04 00:51:01;;;;;;;;;;;;;;;-6.22;100.00;96088.22;1034844;28;19924;-71
2022/04/04 00:51:31;;;;;;;;;;;;;;;-6.20;100.00;96097.34;1035421;28;19917;-72
2022/04/04 00:52:01;;;;;;;;;;;;;;;-6.22;100.00;96101.00;1030794;28;19988;-73
2022/04/04 00:52:32;;;;;;;;;;;;;;;-6.24;100.00;96095.22;1035314;28;20168;-74
2022/04/04 00:53:02;;;;;;;;;;;;;;;-6.17;100.00;96091.94;1034861;28;20418;-73
2022/04/04 00:53:32;;;;;;;;;;;;;;;-6.19;100.00;96093.03;1031069;28;19906;-73
2022/04/04 00:54:03;;;;;;;;;;;;;;;-6.24;100.00;96090.13;1027027;28;19907;-71
2022/04/04 00:54:33;;;;;;;;;;;;;;;-6.24;100.00;96095.22;1024753;28;20323;-71
2022/04/04 00:55:04;;;;;;;;;;;;;;;-6.22;100.00;96093.34;1023060;28;19914;-72
2022/04/04 00:55:35;;;;;;;;;;;;;;;-6.21;100.00;96094.94;1027168;28;20245;-71
2022/04/04 00:56:05;;;;;;;;;;;;;;;-6.15;100.00;96091.78;1029611;28;20066;-75
2022/04/04 00:56:38;;;;;;;;;;;;;;;-6.24;100.00;96085.00;1032477;28;19910;-73
2022/04/04 00:57:12;;;;;;;;;;;;;;;-6.24;100.00;96092.66;1039246;28;20409;-72
2022/04/04 00:57:43;;;;;;;;;;;;;;;-6.23;100.00;96087.44;1039041;28;19916;-71
2022/04/04 00:58:14;;;;;;;;;;;;;;;-6.29;100.00;96087.22;1034897;28;20032;-71
2022/04/04 00:58:44;;;;;;;;;;;;;;;-6.30;100.00;96090.75;1030995;28;20291;-73
2022/04/04 00:59:16;;;;;;;;;;;;;;;-6.35;100.00;96086.06;1026745;28;19910;-73
2022/04/04 00:59:46;;;;;;;;;;;;;;;-6.36;100.00;96099.00;1026984;28;19930;-71
2022/04/04 01:00:16;;;;;;;;;;;;;;;-6.38;100.00;96090.66;1031267;28;19913;-72
2022/04/04 01:00:47;;;;;;;;;;;;;;;-6.36;100.00;96088.78;1031170;28;19913;-71
2022/04/04 01:01:18;;;;;;;;;;;;;;;-6.41;100.00;96094.31;1022697;28;20415;-73
2022/04/04 01:01:51;;;;;;;;;;;;;;;-6.41;100.00;96090.00;1027016;28;19911;-71
2022/04/04 01:02:22;;;;;;;;;;;;;;;-6.41;100.00;96094.31;1023441;28;19937;-73
2022/04/04 01:02:55;;;;;;;;;;;;;;;-6.40;100.00;96088.28;1029293;28;19989;-71
2022/04/04 01:03:25;;;;;;;;;;;;;;;-6.37;100.00;96087.16;1034940;28;20385;-73
2022/04/04 01:03:55;;;;;;;;;;;;;;;-6.35;100.00;96092.94;1031545;28;20516;-72
2022/04/04 01:04:26;;;;;;;;;;;;;;;-6.41;100.00;96090.00;1031099;28;20350;-73
2022/04/04 01:04:56;;;;;;;;;;;;;;;-6.43;100.00;96089.38;1026859;28;19921;-71
2022/04/04 01:05:26;;;;;;;;;;;;;;;-6.41;100.00;96090.00;1023072;28;19914;-73
2022/04/04 01:05:59;;;;;;;;;;;;;;;-6.36;100.00;96087.03;1023060;29;19944;-72
2022/04/04 01:06:29;;;;;;;;;;;;;;;-6.41;100.00;96084.09;1023750;28;19919;-71
2022/04/04 01:07:00;;;;;;;;;;;;;;;-6.41;100.00;96089.19;1030406;28;19910;-74
2022/04/04 01:07:31;;;;;;;;;;;;;;;-6.35;100.00;96085.25;1030920;28;19912;-72
2022/04/04 01:08:01;;;;;;;;;;;;;;;-6.41;100.00;96077.25;1031436;28;19972;-73
2022/04/04 01:08:32;;;;;;;;;;;;;;;-6.43;100.00;96086.81;1030353;28;19933;-72
2022/04/04 01:09:02;;;;;;;;;;;;;;;-6.39;100.00;96086.53;1027030;28;19921;-71
2022/04/04 01:09:32;;;;;;;;;;;;;;;-6.43;100.00;96086.81;1026863;28;19906;-71
2022/04/04 01:10:03;;;;;;;;;;;;;;;-6.39;100.00;96081.41;1022731;29;19910;-73
2022/04/04 01:10:33;;;;;;;;;;;;;;;-6.42;100.00;96080.75;1022465;28;19911;-71
2022/04/04 01:11:04;;;;;;;;;;;;;;;-6.42;100.00;96085.84;1027141;28;19914;-73
2022/04/04 01:11:35;;;;;;;;;;;;;;;-6.34;100.00;96082.56;1018914;29;20379;-71
2022/04/04 01:12:08;;;;;;;;;;;;;;;-6.31;100.00;96082.25;1024884;28;19997;-72
2022/04/04 01:12:48;;;;;;;;;;;;;;;-6.34;100.00;96085.09;1027536;28;19917;-71
2022/04/04 01:13:18;;;;;;;;;;;;;;;-6.32;100.00;96082.41;1028638;28;19910;-72
2022/04/04 01:13:49;;;;;;;;;;;;;;;-6.33;100.00;96075.72;1030301;28;19926;-72
2022/04/04 01:14:19;;;;;;;;;;;;;;;-6.27;100.00;96075.09;1030911;28;19983;-71
2022/04/04 01:14:50;;;;;;;;;;;;;;;-6.28;100.00;96083.72;1031112;28;19921;-71
2022/04/04 01:15:22;;;;;;;;;;;;;;;-6.28;100.00;96078.59;1030780;28;19933;-73
2022/04/04 01:15:52;;;;;;;;;;;;;;;-6.35;100.00;96078.41;1030736;28;20304;-72
2022/04/04 01:16:22;;;;;;;;;;;;;;;-6.40;100.00;96075.50;1030894;28;19928;-73
2022/04/04 01:16:52;;;;;;;;;;;;;;;-6.42;100.00;96075.66;1022477;28;19918;-72
2022/04/04 01:17:25;;;;;;;;;;;;;;;-6.47;100.00;96074.47;1026750;28;19914;-72
2022/04/04 01:17:55;;;;;;;;;;;;;;;-6.46;100.00;96071.78;1026758;28;19918;-71
2022/04/04 01:18:26;;;;;;;;;;;;;;;-6.43;100.00;96079.16;1031615;28;20483;-73
2022/04/04 01:18:56;;;;;;;;;;;;;;;-6.45;100.00;96078.50;1027122;28;19916;-71
2022/04/04 01:19:26;;;;;;;;;;;;;;;-6.44;100.00;96077.56;1030971;28;19961;-71
2022/04/04 01:19:56;;;;;;;;;;;;;;;-6.49;100.00;96071.28;1026862;28;20469;-70
2022/04/04 01:20:27;;;;;;;;;;;;;;;-6.50;100.00;96073.03;1026037;28;20350;-73
2022/04/04 01:20:57;;;;;;;;;;;;;;;-6.53;100.00;96075.09;1034984;28;20280;-73
2022/04/04 01:21:28;;;;;;;;;;;;;;;-6.53;100.00;96077.66;1035079;28;19920;-74
2022/04/04 01:21:58;;;;;;;;;;;;;;;-6.44;100.00;96063.97;1038811;28;19909;-71
2022/04/04 01:22:28;;;;;;;;;;;;;;;-6.44;100.00;96067.34;1034801;28;19960;-73
2022/04/04 01:22:59;;;;;;;;;;;;;;;-6.44;100.00;96069.06;1035025;28;19918;-73
2022/04/04 01:23:31;;;;;;;;;;;;;;;-6.39;100.00;96069.44;1035123;28;20321;-70
2022/04/04 01:24:02;;;;;;;;;;;;;;;-6.38;100.00;96072.78;1025170;28;20462;-72
2022/04/04 01:24:37;;;;;;;;;;;;;;;-6.35;100.00;96075.84;1023277;29;19950;-74
2022/04/04 01:25:09;;;;;;;;;;;;;;;-6.37;100.00;96069.28;1022894;29;20472;-73
2022/04/04 01:25:39;;;;;;;;;;;;;;;-6.36;100.00;96070.91;1024799;28;20411;-72
2022/04/04 01:26:10;;;;;;;;;;;;;;;-6.35;100.00;96070.75;1024013;28;20057;-73
2022/04/04 01:26:44;;;;;;;;;;;;;;;-6.43;100.00;96074.06;1027948;28;19918;-71
2022/04/04 01:27:15;;;;;;;;;;;;;;;-6.47;100.00;96075.31;1034259;28;19945;-73
2022/04/04 01:27:45;;;;;;;;;;;;;;;-6.42;100.00;96067.19;1029718;28;20427;-73
2022/04/04 01:28:16;;;;;;;;;;;;;;;-6.43;100.00;96066.38;1030842;28;20383;-72
2022/04/04 01:28:46;;;;;;;;;;;;;;;-6.46;100.00;96071.00;1027171;28;19938;-72
2022/04/04 01:29:16;;;;;;;;;;;;;;;-6.44;100.00;96063.97;1026951;28;19914;-72
2022/04/04 01:29:47;;;;;;;;;;;;;;;-6.47;100.00;96067.66;1031016;28;19914;-74
2022/04/04 01:30:18;;;;;;;;;;;;;;;-6.48;100.00;96060.91;1027210;28;20399;-75
2022/04/04 01:30:48;;;;;;;;;;;;;;;-6.48;100.00;96058.38;1033125;28;20370;-74
2022/04/04 01:31:18;;;;;;;;;;;;;;;-6.49;100.00;96066.97;1035011;28;19945;-72
2022/04/04 01:31:49;;;;;;;;;;;;;;;-6.54;100.00;96064.09;1026338;28;19921;-72
2022/04/04 01:32:19;;;;;;;;;;;;;;;-6.53;100.00;96062.34;1026919;28;20641;-73
2022/04/04 01:32:50;;;;;;;;;;;;;;;-6.56;100.00;96068.53;1030871;28;19926;-72
2022/04/04 01:33:20;;;;;;;;;;;;;;;-6.58;100.00;96062.75;1026969;28;19918;-72
2022/04/04 01:33:50;;;;;;;;;;;;;;;-6.56;100.00;96062.63;1027558;28;20019;-73
2022/04/04 01:34:21;;;;;;;;;;;;;;;-6.61;100.00;96057.16;1030713;28;19921;-72
2022/04/04 01:34:52;;;;;;;;;;;;;;;-6.58;100.00;96067.06;1030595;28;19917;-72
2022/04/04 01:35:22;;;;;;;;;;;;;;;-6.61;100.00;96057.94;1039082;28;19913;-73
2022/04/04 01:35:53;;;;;;;;;;;;;;;-6.58;100.00;96065.31;1030658;28;19918;-73
2022/04/04 01:36:23;;;;;;;;;;;;;;;-6.58;100.00;96057.66;1022881;28;19910;-73
2022/04/04 01:36:57;;;;;;;;;;;;;;;-6.63;100.00;96056.50;1025917;28;19914;-73
2022/04/04 01:37:27;;;;;;;;;;;;;;;-6.64;100.00;96060.78;1031234;28;19914;-72
2022/04/04 01:37:57;;;;;;;;;;;;;;;-6.61;100.00;96060.50;1025362;28;20411;-72
2022/04/04 01:38:27;;;;;;;;;;;;;;;-6.61;100.00;96057.94;1027089;28;19942;-74
2022/04/04 01:38:58;;;;;;;;;;;;;;;-6.63;100.00;96057.31;1030709;28;20189;-73
2022/04/04 01:39:28;;;;;;;;;;;;;;;-6.64;100.00;96053.13;1022571;28;19914;-73
2022/04/04 01:39:58;;;;;;;;;;;;;;;-6.58;100.00;96059.41;1026890;28;19992;-72
2022/04/04 01:40:32;;;;;;;;;;;;;;;-6.58;100.00;96062.75;1030845;28;19914;-72
2022/04/04 01:41:02;;;;;;;;;;;;;;;-6.60;100.00;96059.56;1031028;28;19949;-72
2022/04/04 01:41:33;;;;;;;;;;;;;;;-6.55;100.00;96054.81;1031550;28;19921;-73
2022/04/04 01:42:04;;;;;;;;;;;;;;;-6.52;100.00;96056.28;1031356;28;19918;-72
2022/04/04 01:42:34;;;;;;;;;;;;;;;-6.56;100.00;96054.97;1026629;28;19907;-72
2022/04/04 01:43:05;;;;;;;;;;;;;;;-6.55;100.00;96051.47;1018989;29;19910;-72
2022/04/04 01:43:35;;;;;;;;;;;;;;;-6.55;100.00;96059.13;1019120;29;19991;-73
2022/04/04 01:44:06;;;;;;;;;;;;;;;-6.60;100.00;96056.22;1022955;29;19975;-71
2022/04/04 01:44:36;;;;;;;;;;;;;;;-6.59;100.00;96055.25;1026805;28;20415;-72
2022/04/04 01:45:07;;;;;;;;;;;;;;;-6.60;100.00;96057.03;1030868;28;19914;-73
2022/04/04 01:46:29;;;;;;;;;;;;;;;-6.59;100.00;96050.97;1035023;28;20004;-72
2022/04/04 01:47:00;;;;;;;;;;;;;;;-6.68;100.00;96057.72;1029933;28;19906;-72
2022/04/04 01:47:30;;;;;;;;;;;;;;;-6.69;100.00;96057.91;1025633;28;20444;-72
2022/04/04 01:48:01;;;;;;;;;;;;;;;-6.70;100.00;96056.31;1028806;28;19922;-70
2022/04/04 01:48:34;;;;;;;;;;;;;;;-6.73;100.00;96059.16;1026885;28;19910;-74
2022/04/04 01:49:05;;;;;;;;;;;;;;;-6.78;100.00;96054.47;1022702;28;19925;-73
2022/04/04 01:49:35;;;;;;;;;;;;;;;-6.77;100.00;96063.75;1026570;28;19988;-71
2022/04/04 01:50:05;;;;;;;;;;;;;;;-6.79;100.00;96057.97;1026871;28;19910;-71
2022/04/04 01:50:36;;;;;;;;;;;;;;;-6.81;100.00;96062.41;1026689;28;19956;-72
2022/04/04 01:51:07;;;;;;;;;;;;;;;-6.79;100.00;96054.63;1018788;28;19915;-70
2022/04/04 01:51:37;;;;;;;;;;;;;;;-6.79;100.00;96059.72;1018900;28;19914;-73
2022/04/04 01:52:08;;;;;;;;;;;;;;;-6.83;100.00;96056.66;1026947;28;19925;-73
2022/04/04 01:52:38;;;;;;;;;;;;;;;-6.88;100.00;96054.53;1024485;28;19914;-71
2022/04/04 01:53:26;;;;;;;;;;;;;;;-6.89;100.00;96060.59;1022975;28;19910;-72
2022/04/04 01:53:58;;;;;;;;;;;;;;;-6.82;100.00;96060.03;1021257;29;19922;-73
2022/04/04 01:54:28;;;;;;;;;;;;;;;-6.83;100.00;96063.53;1015947;29;19955;-73
2022/04/04 01:54:58;;;;;;;;;;;;;;;-6.84;100.00;96054.25;1024076;28;20452;-71
2022/04/04 01:55:29;;;;;;;;;;;;;;;-6.77;100.00;96055.25;1027872;28;19956;-73
2022/04/04 01:56:03;;;;;;;;;;;;;;;-6.81;100.00;96057.31;1025975;28;19910;-72
2022/04/04 01:56:34;;;;;;;;;;;;;;;-6.78;100.00;96056.22;1027763;28;19910;-72
2022/04/04 01:57:07;;;;;;;;;;;;;;;-6.83;100.00;96056.66;1024364;28;19915;-74
2022/04/04 01:57:40;;;;;;;;;;;;;;;-6.81;100.00;96061.59;1031641;28;19921;-73
2022/04/04 01:58:11;;;;;;;;;;;;;;;-6.84;100.00;96056.81;1033560;28;19910;-72
2022/04/04 01:58:42;;;;;;;;;;;;;;;-6.81;100.00;96059.06;1036422;28;19913;-73
2022/04/04 01:59:12;;;;;;;;;;;;;;;-6.84;100.00;96056.81;1031461;28;19914;-73
2022/04/04 01:59:42;;;;;;;;;;;;;;;-6.89;100.00;96055.50;1031132;28;19938;-72
2022/04/04 02:00:13;;;;;;;;;;;;;;;-6.85;100.00;96053.44;1031571;28;19918;-71
2022/04/04 02:00:43;;;;;;;;;;;;;;;-6.90;100.00;96053.91;1036010;28;20301;-70
2022/04/04 02:01:14;;;;;;;;;;;;;;;-6.92;100.00;96055.78;1039792;28;19912;-72
2022/04/04 02:01:44;;;;;;;;;;;;;;;-6.92;100.00;96060.09;1039728;28;19905;-72
2022/04/04 02:02:15;;;;;;;;;;;;;;;-6.92;100.00;96060.88;1039787;28;19913;-71
2022/04/04 02:02:45;;;;;;;;;;;;;;;-6.88;100.00;96052.00;1035838;28;19901;-73
2022/04/04 02:03:15;;;;;;;;;;;;;;;-6.82;100.00;96057.47;1031566;28;19956;-73
2022/04/04 02:03:46;;;;;;;;;;;;;;;-6.81;100.00;96054.75;1027669;28;20399;-72
2022/04/04 02:04:16;;;;;;;;;;;;;;;-6.83;100.00;96048.22;1027685;28;19921;-73
2022/04/04 02:04:47;;;;;;;;;;;;;;;-6.83;100.00;96048.22;1023838;28;19977;-75
2022/04/04 02:05:18;;;;;;;;;;;;;;;-6.82;100.00;96049.81;1033911;28;20331;-72
2022/04/04 02:05:48;;;;;;;;;;;;;;;-6.84;100.00;96051.69;1039949;28;20405;-71
2022/04/04 02:06:19;;;;;;;;;;;;;;;-6.80;100.00;96053.81;1035708;28;19906;-70
2022/04/04 02:06:49;;;;;;;;;;;;;;;-6.84;100.00;96049.97;1035009;28;19914;-72
2022/04/04 02:07:19;;;;;;;;;;;;;;;-6.85;100.00;96052.66;1035766;28;19914;-71
2022/04/04 02:07:50;;;;;;;;;;;;;;;-6.86;100.00;96051.06;1035827;28;19914;-73
2022/04/04 02:08:20;;;;;;;;;;;;;;;-6.89;100.00;96047.03;1039900;28;20378;-72
2022/04/04 02:08:51;;;;;;;;;;;;;;;-6.87;100.00;96047.72;1032148;28;19937;-73
2022/04/04 02:09:21;;;;;;;;;;;;;;;-6.88;100.00;96051.19;1031813;28;19946;-74
2022/04/04 02:09:53;;;;;;;;;;;;;;;-6.89;100.00;96045.28;1031749;28;19914;-73
2022/04/04 02:10:23;;;;;;;;;;;;;;;-6.89;100.00;96049.59;1029810;28;19911;-72
2022/04/04 02:10:54;;;;;;;;;;;;;;;-6.80;100.00;96047.94;1027968;28;19929;-73
2022/04/04 02:11:24;;;;;;;;;;;;;;;-6.84;100.00;96049.16;1027741;28;19957;-72
2022/04/04 02:11:54;;;;;;;;;;;;;;;-6.88;100.00;96052.00;1018693;28;19974;-71
2022/04/04 02:12:25;;;;;;;;;;;;;;;-6.89;100.00;96044.50;1019645;29;19966;-72
2022/04/04 02:12:55;;;;;;;;;;;;;;;-6.87;100.00;96045.16;1019718;29;19947;-71
2022/04/04 02:13:26;;;;;;;;;;;;;;;-6.80;100.00;96047.94;1023855;29;19946;-71
2022/04/04 02:13:58;;;;;;;;;;;;;;;-6.77;100.00;96037.41;1026822;28;20646;-71
2022/04/04 02:14:29;;;;;;;;;;;;;;;-6.78;100.00;96040.91;1023971;28;19942;-72
2022/04/04 02:14:59;;;;;;;;;;;;;;;-6.75;100.00;96040.63;1027561;28;19917;-72
2022/04/04 02:15:30;;;;;;;;;;;;;;;-6.72;100.00;96036.03;1027874;28;19933;-74
2022/04/04 02:16:03;;;;;;;;;;;;;;;-6.65;100.00;96041.34;1027960;28;19921;-72
2022/04/04 02:16:34;;;;;;;;;;;;;;;-6.65;100.00;96038.78;1023916;28;20187;-71
2022/04/04 02:17:05;;;;;;;;;;;;;;;-6.42;100.00;96042.47;1026853;28;19921;-73
2022/04/04 02:17:35;;;;;;;;;;;;;;;-6.43;100.00;96035.75;1028200;28;19910;-73
2022/04/04 02:18:08;;;;;;;;;;;;;;;-6.44;100.00;96034.16;1028313;28;20511;-73
2022/04/04 02:18:38;;;;;;;;;;;;;;;-6.45;100.00;96037.66;1031457;28;20312;-71
2022/04/04 02:19:09;;;;;;;;;;;;;;;-6.45;100.00;96042.75;1023678;28;19937;-72
2022/04/04 02:19:40;;;;;;;;;;;;;;;-6.43;100.00;96038.31;1024235;28;19977;-72
2022/04/04 02:20:10;;;;;;;;;;;;;;;-6.47;100.00;96034.47;1027832;28;19914;-73
2022/04/04 02:20:41;;;;;;;;;;;;;;;-6.45;100.00;96032.53;1027438;28;19917;-72
2022/04/04 02:21:11;;;;;;;;;;;;;;;-6.46;100.00;96038.59;1031671;28;19921;-72
2022/04/04 02:21:41;;;;;;;;;;;;;;;-6.46;100.00;96038.59;1027594;28;19914;-72
2022/04/04 02:22:12;;;;;;;;;;;;;;;-6.41;100.00;96033.03;1027404;28;20046;-73
2022/04/04 02:22:42;;;;;;;;;;;;;;;-6.45;100.00;96039.41;1023514;28;19923;-72
2022/04/04 02:23:17;;;;;;;;;;;;;;;-6.45;100.00;96040.19;1027725;28;20303;-73
2022/04/04 02:23:47;;;;;;;;;;;;;;;-6.50;100.00;96033.97;1032099;28;19972;-73
2022/04/04 02:24:17;;;;;;;;;;;;;;;-6.53;100.00;96042.72;1032138;28;19972;-71
2022/04/04 02:24:48;;;;;;;;;;;;;;;-6.48;100.00;96032.84;1031483;28;19925;-72
2022/04/04 02:25:18;;;;;;;;;;;;;;;-6.46;100.00;96036.06;1027559;28;19973;-72
2022/04/04 02:25:48;;;;;;;;;;;;;;;-6.47;100.00;96042.13;1027540;28;19988;-73
2022/04/04 02:26:19;;;;;;;;;;;;;;;-6.50;100.00;96037.31;1023591;29;19926;-71
2022/04/04 02:26:49;;;;;;;;;;;;;;;-6.44;100.00;96039.28;1026892;28;20455;-74
2022/04/04 02:27:19;;;;;;;;;;;;;;;-6.45;100.00;96030.00;1031323;28;19910;-74
2022/04/04 02:27:50;;;;;;;;;;;;;;;-6.44;100.00;96034.16;1027732;28;19929;-73
2022/04/04 02:28:20;;;;;;;;;;;;;;;-6.47;100.00;96034.47;1031595;28;20303;-72
2022/04/04 02:28:50;;;;;;;;;;;;;;;-6.48;100.00;96032.84;1023636;28;19926;-72
2022/04/04 02:29:20;;;;;;;;;;;;;;;-6.48;100.00;96030.28;1035456;28;19917;-72
2022/04/04 02:29:51;;;;;;;;;;;;;;;-6.39;100.00;96035.47;1035241;28;19939;-73
2022/04/04 02:30:21;;;;;;;;;;;;;;;-6.35;100.00;96021.44;1031485;28;19925;-72
2022/04/04 02:30:51;;;;;;;;;;;;;;;-6.42;100.00;96026.34;1027342;28;20346;-73
2022/04/04 02:31:22;;;;;;;;;;;;;;;-6.47;100.00;96031.91;1027453;28;19922;-75
2022/04/04 02:31:52;;;;;;;;;;;;;;;-6.44;100.00;96030.78;1023580;28;19973;-72
2022/04/04 02:32:23;;;;;;;;;;;;;;;-6.34;100.00;96025.59;1027449;28;19953;-71
2022/04/04 02:32:53;;;;;;;;;;;;;;;-6.35;100.00;96027.34;1027490;28;19992;-73
2022/04/04 02:33:26;;;;;;;;;;;;;;;-6.35;100.00;96031.66;1023671;28;19930;-74
2022/04/04 02:33:56;;;;;;;;;;;;;;;-6.41;100.00;96031.28;1023886;28;19943;-72
2022/04/04 02:34:27;;;;;;;;;;;;;;;-6.36;100.00;96024.97;1028060;28;19951;-72
2022/04/04 02:34:58;;;;;;;;;;;;;;;-6.39;100.00;96030.34;1031499;28;19918;-70
2022/04/04 02:35:29;;;;;;;;;;;;;;;-6.43;100.00;96027.31;1032088;28;19921;-71
2022/04/04 02:35:59;;;;;;;;;;;;;;;-6.45;100.00;96030.00;1035818;28;20367;-73
2022/04/04 02:36:29;;;;;;;;;;;;;;;-6.51;100.00;96032.34;1031781;28;19992;-72
2022/04/04 02:37:00;;;;;;;;;;;;;;;-6.50;100.00;96027.09;1019105;28;19934;-73
2022/04/04 02:37:30;;;;;;;;;;;;;;;-6.54;100.00;96030.91;1023705;29;19910;-70
2022/04/04 02:38:03;;;;;;;;;;;;;;;-6.55;100.00;96031.03;1027807;28;20284;-71
2022/04/04 02:38:34;;;;;;;;;;;;;;;-6.59;100.00;96029.75;1024571;28;19907;-73
2022/04/04 02:39:07;;;;;;;;;;;;;;;-6.59;100.00;96029.75;1027546;28;19946;-72